createdAt,value
2022-11-26T00:02:23.218Z,8.35
2022-11-26T00:04:53.491Z,7.95
2022-11-26T00:07:25.959Z,7.93
2022-11-26T00:09:54.321Z,9.63
2022-11-26T00:12:24.372Z,8.10
2022-11-26T00:14:52.071Z,9.23
2022-11-26T00:17:20.377Z,7.22
2022-11-26T00:19:49.813Z,7.65
2022-11-26T00:22:25.291Z,7.47
2022-11-26T00:24:54.318Z,7.57
2022-11-26T00:27:22.995Z,7.43
2022-11-26T00:29:50.785Z,7.57
2022-11-26T00:32:20.827Z,8.40
2022-11-26T00:34:48.785Z,8.48
2022-11-26T00:37:24.252Z,7.13
2022-11-26T00:39:52.967Z,7.38
2022-11-26T00:42:20.936Z,6.78
2022-11-26T00:44:48.679Z,7.50
2022-11-26T00:47:16.556Z,6.18
2022-11-26T00:49:44.272Z,6.32
2022-11-26T00:52:25.835Z,6.22
2022-11-26T00:54:53.667Z,6.07
2022-11-26T00:57:21.486Z,7.15
2022-11-26T00:59:49.379Z,6.35
2022-11-26T01:02:17.245Z,8.07
2022-11-26T01:04:44.968Z,8.90
2022-11-26T01:07:12.696Z,6.07
2022-11-26T01:09:45.174Z,6.65
2022-11-26T01:12:14.737Z,6.55
2022-11-26T01:14:42.742Z,6.75
2022-11-26T01:17:12.523Z,5.68
2022-11-26T01:19:40.218Z,7.00
2022-11-26T01:22:19.756Z,6.20
2022-11-26T01:24:49.007Z,6.15
2022-11-26T01:27:16.729Z,6.88
2022-11-26T01:29:44.415Z,6.07
2022-11-26T01:32:12.801Z,5.03
2022-11-26T01:34:40.698Z,5.38
2022-11-26T01:37:14.004Z,5.15
2022-11-26T01:39:41.735Z,5.95
2022-11-26T01:42:23.798Z,5.85
2022-11-26T01:44:51.583Z,6.30
2022-11-26T01:47:22.353Z,6.35
2022-11-26T01:50:27.459Z,5.25
2022-11-26T01:52:56.556Z,5.45
2022-11-26T01:55:24.698Z,5.50
2022-11-26T01:57:54.102Z,5.72
2022-11-26T02:00:21.933Z,6.05
2022-11-26T02:02:50.158Z,5.47
2022-11-26T02:05:22.066Z,5.13
2022-11-26T02:07:51.607Z,5.40
2022-11-26T02:10:19.973Z,6.22
2022-11-26T02:12:48.472Z,6.03
2022-11-26T02:15:17.721Z,5.38
2022-11-26T02:17:49.116Z,5.93
2022-11-26T02:20:49.432Z,6.78
2022-11-26T02:24:02.588Z,6.38
2022-11-26T02:26:58.872Z,5.55
2022-11-26T02:29:32.009Z,6.25
2022-11-26T02:32:09.446Z,5.50
2022-11-26T02:34:45.564Z,6.63
2022-11-26T02:37:20.217Z,7.35
2022-11-26T02:39:48.383Z,5.90
2022-11-26T02:42:27.658Z,6.87
2022-11-26T02:44:57.883Z,6.75
2022-11-26T02:47:29.376Z,7.15
2022-11-26T02:50:00.631Z,6.28
2022-11-26T02:52:29.042Z,6.17
2022-11-26T02:54:58.091Z,5.93
2022-11-26T02:57:30.120Z,6.00
2022-11-26T02:59:58.340Z,6.80
2022-11-26T03:02:32.638Z,7.37
2022-11-26T03:05:03.482Z,5.60
2022-11-26T03:07:33.679Z,5.05
2022-11-26T03:10:02.629Z,7.03
2022-11-26T03:12:30.799Z,6.53
2022-11-26T03:14:58.886Z,6.07
2022-11-26T03:17:27.893Z,6.50
2022-11-26T03:19:55.861Z,6.20
2022-11-26T03:22:23.595Z,5.90
2022-11-26T03:24:51.397Z,6.25
2022-11-26T03:27:19.089Z,5.43
2022-11-26T03:29:47.072Z,5.57
2022-11-26T03:32:14.713Z,5.35
2022-11-26T03:34:43.902Z,6.25
2022-11-26T03:37:11.641Z,5.75
2022-11-26T03:39:39.412Z,6.30
2022-11-26T03:42:07.193Z,4.90
2022-11-26T03:44:35.036Z,5.20
2022-11-26T03:47:03.259Z,5.10
2022-11-26T03:49:31.070Z,5.25
2022-11-26T03:52:00.138Z,5.07
2022-11-26T03:54:28.137Z,4.63
2022-11-26T03:56:55.818Z,4.47
2022-11-26T03:59:23.581Z,5.47
2022-11-26T04:01:51.409Z,4.70
2022-11-26T04:04:19.228Z,5.18
2022-11-26T04:06:47.022Z,4.35
2022-11-26T04:09:16.130Z,3.95
2022-11-26T04:11:43.955Z,5.55
2022-11-26T04:14:11.620Z,4.65
2022-11-26T04:16:39.347Z,5.38
2022-11-26T04:19:07.226Z,4.43
2022-11-26T04:21:35.022Z,5.60
2022-11-26T04:24:02.922Z,4.38
2022-11-26T04:26:32.057Z,4.60
2022-11-26T04:29:00.050Z,4.28
2022-11-26T04:31:27.770Z,4.57
2022-11-26T04:33:55.513Z,5.10
2022-11-26T04:36:23.218Z,4.10
2022-11-26T04:38:51.034Z,4.43
2022-11-26T04:41:18.692Z,4.60
2022-11-26T04:43:47.759Z,5.00
2022-11-26T04:46:15.611Z,4.57
2022-11-26T04:48:43.404Z,4.50
2022-11-26T04:51:11.168Z,3.10
2022-11-26T04:53:38.938Z,4.82
2022-11-26T04:56:07.031Z,5.22
2022-11-26T04:58:34.803Z,4.90
2022-11-26T05:01:03.936Z,4.55
2022-11-26T05:03:31.992Z,3.88
2022-11-26T05:05:59.672Z,4.35
2022-11-26T05:08:27.336Z,4.93
2022-11-26T05:13:40.813Z,3.92
2022-11-26T05:16:10.195Z,5.40
2022-11-26T05:18:37.939Z,4.30
2022-11-26T05:21:06.019Z,3.80
2022-11-26T05:23:33.826Z,4.35
2022-11-26T05:26:01.613Z,4.93
2022-11-26T05:28:29.299Z,4.75
2022-11-26T05:31:00.001Z,5.47
2022-11-26T05:33:29.887Z,4.90
2022-11-26T05:35:57.685Z,5.35
2022-11-26T05:38:25.371Z,4.53
2022-11-26T05:40:53.031Z,5.57
2022-11-26T05:43:20.914Z,5.10
2022-11-26T05:45:48.717Z,6.03
2022-11-26T05:48:16.436Z,4.78
2022-11-26T05:50:47.969Z,5.55
2022-11-26T05:53:19.258Z,6.07
2022-11-26T05:55:46.969Z,5.97
2022-11-26T05:58:14.654Z,6.18
2022-11-26T06:00:42.402Z,5.40
2022-11-26T06:03:10.294Z,5.35
2022-11-26T06:08:24.860Z,5.78
2022-11-26T06:10:52.521Z,5.55
2022-11-26T06:13:20.196Z,5.40
2022-11-26T06:15:47.843Z,5.40
2022-11-26T06:18:15.616Z,5.65
2022-11-26T06:20:43.364Z,5.78
2022-11-26T06:23:11.671Z,6.53
2022-11-26T06:25:42.472Z,6.43
2022-11-26T06:28:10.255Z,5.93
2022-11-26T06:30:38.091Z,5.32
2022-11-26T06:33:05.959Z,6.05
2022-11-26T06:35:33.671Z,5.45
2022-11-26T06:38:01.385Z,4.90
2022-11-26T06:40:29.150Z,5.10
2022-11-26T06:42:58.237Z,5.53
2022-11-26T06:45:26.176Z,5.45
2022-11-26T06:47:53.919Z,7.40
2022-11-26T06:50:25.737Z,5.72
2022-11-26T06:52:54.089Z,5.80
2022-11-26T06:55:22.337Z,5.60
2022-11-26T06:57:51.614Z,5.97
2022-11-26T07:00:22.011Z,6.25
2022-11-26T07:02:49.807Z,5.03
2022-11-26T07:05:17.843Z,5.38
2022-11-26T07:07:45.672Z,4.95
2022-11-26T07:10:13.490Z,5.95
2022-11-26T07:12:41.238Z,5.85
2022-11-26T07:15:10.281Z,5.78
2022-11-26T07:17:39.307Z,5.33
2022-11-26T07:20:08.329Z,5.03
2022-11-26T07:22:36.527Z,5.68
2022-11-26T07:25:09.355Z,5.00
2022-11-26T07:27:39.916Z,7.18
2022-11-26T07:30:08.808Z,7.30
2022-11-26T07:32:36.541Z,6.82
2022-11-26T07:35:06.279Z,7.22
2022-11-26T07:37:34.111Z,6.78
2022-11-26T07:40:01.954Z,6.47
2022-11-26T07:42:31.800Z,5.40
2022-11-26T07:44:59.796Z,6.75
2022-11-26T07:47:27.671Z,6.10
2022-11-26T07:49:55.399Z,7.55
2022-11-26T07:52:24.497Z,18.20
2022-11-26T07:54:52.201Z,8.33
2022-11-26T07:57:22.128Z,6.60
2022-11-26T07:59:49.889Z,7.35
2022-11-26T08:02:18.045Z,6.38
2022-11-26T08:04:46.005Z,6.38
2022-11-26T08:07:23.031Z,6.18
2022-11-26T08:09:53.586Z,5.68
2022-11-26T08:12:21.295Z,5.13
2022-11-26T08:14:49.054Z,5.68
2022-11-26T08:17:16.855Z,6.40
2022-11-26T08:19:44.804Z,5.45
2022-11-26T08:22:12.834Z,6.22
2022-11-26T08:24:40.786Z,6.35
2022-11-26T08:29:55.640Z,5.80
2022-11-26T08:32:23.403Z,6.57
2022-11-26T08:34:51.131Z,6.13
2022-11-26T08:37:18.816Z,6.50
2022-11-26T08:39:46.844Z,7.10
2022-11-26T08:42:15.946Z,6.40
2022-11-26T08:44:43.695Z,6.22
2022-11-26T08:47:11.407Z,7.13
2022-11-26T08:49:39.213Z,7.10
2022-11-26T08:52:06.998Z,6.03
2022-11-26T08:54:34.692Z,6.07
2022-11-26T08:57:02.494Z,7.00
2022-11-26T08:59:31.463Z,7.55
2022-11-26T09:02:00.304Z,6.45
2022-11-26T09:04:28.044Z,7.07
2022-11-26T09:06:55.711Z,6.25
2022-11-26T09:09:23.438Z,7.68
2022-11-26T09:11:54.121Z,6.30
2022-11-26T09:14:24.843Z,7.70
2022-11-26T09:16:55.296Z,6.47
2022-11-26T09:19:23.811Z,6.82
2022-11-26T09:21:51.627Z,6.78
2022-11-26T09:24:20.061Z,6.40
2022-11-26T09:26:48.857Z,7.63
2022-11-26T09:29:18.072Z,7.47
2022-11-26T09:32:15.397Z,6.25
2022-11-26T09:34:36.025Z,6.53
2022-11-26T09:37:04.096Z,7.30
2022-11-26T09:39:31.896Z,6.40
2022-11-26T09:42:06.195Z,8.25
2022-11-26T09:44:51.319Z,7.38
2022-11-26T09:47:22.307Z,7.45
2022-11-26T09:49:59.413Z,8.60
2022-11-26T09:52:31.296Z,6.80
2022-11-26T09:55:06.445Z,7.75
2022-11-26T09:57:40.677Z,7.35
2022-11-26T10:00:22.644Z,7.35
2022-11-26T10:02:53.584Z,6.78
2022-11-26T10:05:24.751Z,6.50
2022-11-26T10:08:03.497Z,7.82
2022-11-26T10:10:38.558Z,7.55
2022-11-26T10:13:19.919Z,8.18
2022-11-26T10:15:59.066Z,7.50
2022-11-26T10:18:37.394Z,7.72
2022-11-26T10:21:27.221Z,7.03
2022-11-26T10:24:04.974Z,7.63
2022-11-26T10:26:36.898Z,7.57
2022-11-26T10:29:23.906Z,7.95
2022-11-26T10:31:57.456Z,7.50
2022-11-26T10:34:35.899Z,8.15
2022-11-26T10:37:08.146Z,7.85
2022-11-26T10:39:36.119Z,6.65
2022-11-26T10:42:10.336Z,6.90
2022-11-26T10:44:41.686Z,5.97
2022-11-26T10:47:36.445Z,6.32
2022-11-26T10:50:46.561Z,5.75
2022-11-26T10:53:22.134Z,5.07
2022-11-26T10:55:51.388Z,4.78
2022-11-26T10:58:22.908Z,6.40
2022-11-26T11:00:57.809Z,7.53
2022-11-26T11:03:59.714Z,6.18
2022-11-26T11:06:28.902Z,7.50
2022-11-26T11:08:58.042Z,7.57
2022-11-26T11:11:27.875Z,6.68
2022-11-26T11:13:55.905Z,7.22
2022-11-26T11:16:28.476Z,8.80
2022-11-26T11:18:58.423Z,8.88
2022-11-26T11:21:31.032Z,8.93
2022-11-26T11:24:17.430Z,8.40
2022-11-26T11:26:47.604Z,7.88
2022-11-26T11:29:26.423Z,7.68
2022-11-26T11:31:55.486Z,7.15
2022-11-26T11:34:27.815Z,5.35
2022-11-26T11:37:03.827Z,6.57
2022-11-26T11:39:35.733Z,6.35
2022-11-26T11:42:07.460Z,5.60
2022-11-26T11:44:40.302Z,6.50
2022-11-26T11:47:37.202Z,6.45
2022-11-26T11:50:19.668Z,6.93
2022-11-26T11:53:26.302Z,5.95
2022-11-26T11:56:11.813Z,5.97
2022-11-26T11:59:03.943Z,6.32
2022-11-26T12:01:46.723Z,5.55
2022-11-26T12:04:26.504Z,8.52
2022-11-26T12:07:26.605Z,7.93
2022-11-26T12:12:52.838Z,9.00
2022-11-26T12:15:27.548Z,7.88
2022-11-26T12:18:00.727Z,8.13
2022-11-26T12:20:33.386Z,6.30
2022-11-26T12:23:24.771Z,7.40
2022-11-26T12:25:57.895Z,7.93
2022-11-26T12:28:32.186Z,7.05
2022-11-26T12:31:04.252Z,7.50
2022-11-26T12:33:35.945Z,8.18
2022-11-26T12:36:15.648Z,8.35
2022-11-26T12:38:48.671Z,8.60
2022-11-26T12:41:20.980Z,7.97
2022-11-26T12:43:58.869Z,8.15
2022-11-26T12:46:33.358Z,7.75
2022-11-26T12:49:13.545Z,7.93
2022-11-26T12:51:46.605Z,9.02
2022-11-26T12:54:20.669Z,8.00
2022-11-26T12:56:57.433Z,7.82
2022-11-26T12:59:30.434Z,8.05
2022-11-26T13:01:58.468Z,8.73
2022-11-26T13:04:49.174Z,9.95
2022-11-26T13:07:38.144Z,8.07
2022-11-26T13:10:19.857Z,9.40
2022-11-26T13:12:55.387Z,8.80
2022-11-26T13:15:29.229Z,7.53
2022-11-26T13:18:00.045Z,7.32
2022-11-26T13:20:44.278Z,8.23
2022-11-26T13:23:29.385Z,8.80
2022-11-26T13:26:12.041Z,8.00
2022-11-26T13:29:09.101Z,10.10
2022-11-26T13:31:57.207Z,9.35
2022-11-26T13:34:37.063Z,10.02
2022-11-26T13:37:31.778Z,9.93
2022-11-26T13:40:30.449Z,8.43
2022-11-26T13:43:36.868Z,7.68
2022-11-26T13:46:11.342Z,8.48
2022-11-26T13:48:48.869Z,8.70
2022-11-26T13:51:25.503Z,10.43
2022-11-26T13:53:59.061Z,8.13
2022-11-26T13:56:32.132Z,9.20
2022-11-26T13:59:03.040Z,8.70
2022-11-26T14:01:37.060Z,9.18
2022-11-26T14:04:09.082Z,8.75
2022-11-26T14:06:37.809Z,8.65
2022-11-26T14:09:06.629Z,8.00
2022-11-26T14:11:58.033Z,8.10
2022-11-26T14:14:33.495Z,8.05
2022-11-26T14:17:19.442Z,7.57
2022-11-26T14:20:06.288Z,7.60
2022-11-26T14:22:36.361Z,7.22
2022-11-26T14:25:06.897Z,6.47
2022-11-26T14:27:36.399Z,6.82
2022-11-26T14:30:19.012Z,7.15
2022-11-26T14:32:54.343Z,7.03
2022-11-26T14:35:33.618Z,6.97
2022-11-26T14:38:04.010Z,6.70
2022-11-26T14:40:33.387Z,6.70
2022-11-26T14:43:08.815Z,6.80
2022-11-26T14:45:37.411Z,6.80
2022-11-26T14:48:06.304Z,6.63
2022-11-26T14:50:37.721Z,6.60
2022-11-26T14:53:07.452Z,5.60
2022-11-26T14:55:35.942Z,4.97
2022-11-26T14:58:09.662Z,4.82
2022-11-26T15:00:38.425Z,5.22
2022-11-26T15:03:23.221Z,5.55
2022-11-26T15:05:52.282Z,5.88
2022-11-26T15:08:21.212Z,6.60
2022-11-26T15:10:52.726Z,7.78
2022-11-26T15:13:26.457Z,7.80
2022-11-26T15:15:55.474Z,8.35
2022-11-26T15:18:29.647Z,7.47
2022-11-26T15:21:00.104Z,7.13
2022-11-26T15:23:31.599Z,8.27
2022-11-26T15:26:01.112Z,9.68
2022-11-26T15:28:29.166Z,9.98
2022-11-26T15:30:59.539Z,7.88
2022-11-26T15:33:28.584Z,7.53
2022-11-26T15:35:57.889Z,8.73
2022-11-26T15:38:27.581Z,9.00
2022-11-26T15:40:57.432Z,7.78
2022-11-26T15:43:29.661Z,7.88
2022-11-26T15:46:01.048Z,8.77
2022-11-26T15:48:51.140Z,6.97
2022-11-26T15:51:33.687Z,6.45
2022-11-26T15:54:03.984Z,10.88
2022-11-26T15:56:35.117Z,10.52
2022-11-26T15:59:07.797Z,8.65
2022-11-26T16:01:38.014Z,8.60
2022-11-26T16:04:06.477Z,8.35
2022-11-26T16:06:37.679Z,9.15
2022-11-26T16:09:27.737Z,7.43
2022-11-26T16:12:00.240Z,7.93
2022-11-26T16:14:34.214Z,9.38
2022-11-26T16:17:08.252Z,8.90
2022-11-26T16:19:37.760Z,9.00
2022-11-26T16:22:07.496Z,8.70
2022-11-26T16:24:38.963Z,9.75
2022-11-26T16:27:25.272Z,7.95
2022-11-26T16:29:53.143Z,8.88
2022-11-26T16:32:21.395Z,8.85
2022-11-26T16:34:49.182Z,8.27
2022-11-26T16:37:22.617Z,8.23
2022-11-26T16:39:51.554Z,8.80
2022-11-26T16:42:21.619Z,9.05
2022-11-26T16:44:50.063Z,8.73
2022-11-26T16:47:23.504Z,8.68
2022-11-26T16:49:51.610Z,9.13
2022-11-26T16:52:21.417Z,10.63
2022-11-26T16:54:49.984Z,9.57
2022-11-26T16:57:19.680Z,9.18
2022-11-26T16:59:52.357Z,8.95
2022-11-26T17:02:21.774Z,9.68
2022-11-26T17:04:50.215Z,9.43
2022-11-26T17:07:22.096Z,9.93
2022-11-26T17:09:50.065Z,12.00
2022-11-26T17:12:19.636Z,11.25
2022-11-26T17:14:48.491Z,10.23
2022-11-26T17:17:20.629Z,10.38
2022-11-26T17:19:51.886Z,9.35
2022-11-26T17:22:21.613Z,10.48
2022-11-26T17:24:49.291Z,10.23
2022-11-26T17:27:19.527Z,10.80
2022-11-26T17:29:48.053Z,10.07
2022-11-26T17:32:18.918Z,11.60
2022-11-26T17:34:47.806Z,13.10
2022-11-26T17:37:18.693Z,13.93
2022-11-26T17:39:47.659Z,9.10
2022-11-26T17:42:15.296Z,10.40
2022-11-26T17:44:42.963Z,10.40
2022-11-26T17:47:17.701Z,10.40
2022-11-26T17:49:46.521Z,12.35
2022-11-26T17:52:14.990Z,12.40
2022-11-26T17:54:42.907Z,13.73
2022-11-26T17:57:12.575Z,11.75
2022-11-26T17:59:40.963Z,11.07
2022-11-26T18:02:09.599Z,12.18
2022-11-26T18:04:37.344Z,11.70
2022-11-26T18:07:07.843Z,10.93
2022-11-26T18:09:35.997Z,10.75
2022-11-26T18:12:04.433Z,10.80
2022-11-26T18:14:35.563Z,9.43
2022-11-26T18:17:04.365Z,8.02
2022-11-26T18:19:32.083Z,7.80
2022-11-26T18:21:59.796Z,8.32
2022-11-26T18:24:27.510Z,8.73
2022-11-26T18:26:56.709Z,7.10
2022-11-26T18:29:24.726Z,7.65
2022-11-26T18:31:54.100Z,7.03
2022-11-26T18:34:22.407Z,7.38
2022-11-26T18:36:53.680Z,7.90
2022-11-26T18:39:21.979Z,7.47
2022-11-26T18:41:49.664Z,7.90
2022-11-26T18:44:17.477Z,7.32
2022-11-26T18:46:45.203Z,8.05
2022-11-26T18:49:14.201Z,7.18
2022-11-26T18:51:41.869Z,8.10
2022-11-26T18:54:10.144Z,9.02
2022-11-26T18:56:37.783Z,6.70
2022-11-26T18:59:05.506Z,7.03
2022-11-26T19:01:33.300Z,7.65
2022-11-26T19:04:01.095Z,7.90
2022-11-26T19:06:32.566Z,8.02
2022-11-26T19:09:02.311Z,7.32
2022-11-26T19:11:30.060Z,7.60
2022-11-26T19:13:58.996Z,7.80
2022-11-26T19:16:28.505Z,8.55
2022-11-26T19:18:56.210Z,8.57
2022-11-26T19:21:27.263Z,6.78
2022-11-26T19:23:58.434Z,7.93
2022-11-26T19:26:26.217Z,7.88
2022-11-26T19:28:54.319Z,8.80
2022-11-26T19:31:24.404Z,7.18
2022-11-26T19:33:54.540Z,8.20
2022-11-26T19:36:23.112Z,7.43
2022-11-26T19:38:56.932Z,8.55
2022-11-26T19:41:25.933Z,6.88
2022-11-26T19:43:54.802Z,6.22
2022-11-26T19:46:24.821Z,7.43
2022-11-26T19:48:54.307Z,7.47
2022-11-26T19:51:23.932Z,5.70
2022-11-26T19:53:53.026Z,8.15
2022-11-26T19:56:24.254Z,6.57
2022-11-26T19:58:53.906Z,7.57
2022-11-26T20:01:23.077Z,7.55
2022-11-26T20:03:52.434Z,6.70
2022-11-26T20:06:22.170Z,5.78
2022-11-26T20:08:50.761Z,6.60
2022-11-26T20:11:19.683Z,6.03
2022-11-26T20:13:50.452Z,7.13
2022-11-26T20:16:20.795Z,7.30
2022-11-26T20:18:49.766Z,7.70
2022-11-26T20:21:20.872Z,6.30
2022-11-26T20:23:50.470Z,6.40
2022-11-26T20:26:21.726Z,5.15
2022-11-26T20:28:52.166Z,6.47
2022-11-26T20:31:24.059Z,7.68
2022-11-26T20:33:53.217Z,7.07
2022-11-26T20:36:22.999Z,7.75
2022-11-26T20:38:53.557Z,7.75
2022-11-26T20:41:22.087Z,7.00
2022-11-26T20:43:57.943Z,6.43
2022-11-26T20:46:26.627Z,7.45
2022-11-26T20:48:54.623Z,6.88
2022-11-26T20:51:23.119Z,7.00
2022-11-26T20:53:52.936Z,6.38
2022-11-26T20:56:22.712Z,5.75
2022-11-26T20:58:53.095Z,7.30
2022-11-26T21:01:24.260Z,7.35
2022-11-26T21:03:53.547Z,6.50
2022-11-26T21:06:29.867Z,6.43
2022-11-26T21:09:00.809Z,6.53
2022-11-26T21:11:29.458Z,6.50
2022-11-26T21:14:01.674Z,6.65
2022-11-26T21:16:30.772Z,6.70
2022-11-26T21:18:59.035Z,6.80
2022-11-26T21:21:29.455Z,6.38
2022-11-26T21:23:58.553Z,7.03
2022-11-26T21:26:27.387Z,5.70
2022-11-26T21:28:57.119Z,6.35
2022-11-26T21:31:28.122Z,6.82
2022-11-26T21:33:57.970Z,7.40
2022-11-26T21:36:26.716Z,6.68
2022-11-26T21:38:55.371Z,7.77
2022-11-26T21:41:24.549Z,6.97
2022-11-26T21:43:53.157Z,7.45
2022-11-26T21:46:23.165Z,6.97
2022-11-26T21:48:55.044Z,6.23
2022-11-26T21:51:23.995Z,6.63
2022-11-26T21:53:53.940Z,6.20
2022-11-26T21:56:24.235Z,6.78
2022-11-26T21:58:53.280Z,7.43
2022-11-26T22:01:23.953Z,8.82
2022-11-26T22:03:55.690Z,6.13
2022-11-26T22:06:24.836Z,6.90
2022-11-26T22:08:53.629Z,6.22
2022-11-26T22:11:23.890Z,7.45
2022-11-26T22:13:52.195Z,8.68
2022-11-26T22:16:22.770Z,6.63
2022-11-26T22:18:52.248Z,5.85
2022-11-26T22:21:23.882Z,5.68
2022-11-26T22:23:52.519Z,7.05
2022-11-26T22:26:20.857Z,7.10
2022-11-26T22:28:49.605Z,6.22
2022-11-26T22:31:20.303Z,6.68
2022-11-26T22:33:48.700Z,7.28
2022-11-26T22:36:17.042Z,6.65
2022-11-26T22:38:47.498Z,6.65
2022-11-26T22:41:16.640Z,6.25
2022-11-26T22:43:45.108Z,6.78
2022-11-26T22:46:15.301Z,7.28
2022-11-26T22:48:44.134Z,6.30
2022-11-26T22:51:12.163Z,6.50
2022-11-26T22:53:40.202Z,6.57
2022-11-26T22:56:09.866Z,7.78
2022-11-26T22:58:38.004Z,6.78
2022-11-26T23:01:08.319Z,7.15
2022-11-26T23:03:37.854Z,7.65
2022-11-26T23:06:08.381Z,7.22
2022-11-26T23:08:36.432Z,6.93
2022-11-26T23:11:09.730Z,6.47
2022-11-26T23:13:37.567Z,6.80
2022-11-26T23:16:08.301Z,6.37
2022-11-26T23:18:37.139Z,7.63
2022-11-26T23:21:07.050Z,7.97
2022-11-26T23:23:35.854Z,6.47
2022-11-26T23:26:04.533Z,7.90
2022-11-26T23:28:35.261Z,7.68
2022-11-26T23:31:03.571Z,5.90
2022-11-26T23:33:31.649Z,7.03
2022-11-26T23:36:00.562Z,7.73
2022-11-26T23:38:28.676Z,7.63
2022-11-26T23:40:57.617Z,6.50
2022-11-26T23:43:26.474Z,7.23
2022-11-26T23:46:02.329Z,7.87
2022-11-26T23:48:30.249Z,8.57
2022-11-26T23:50:58.121Z,7.63
2022-11-26T23:53:27.062Z,7.63
2022-11-26T23:55:54.763Z,8.80
2022-11-26T23:58:23.180Z,6.93
